Home > Products > Valid Products > MTR

000
SAUS41 KBOX 020355
MTRMQE
METAR KMQE 020354Z AUTO 21010KT 19/17 A3005 RMK AO1 SLP182 T01940172





000
SAUS41 KBOX 020255
MTRMQE
METAR KMQE 020254Z AUTO 20010KT 19/17 A3006 RMK AO1 SLP185 T01940167
51006





000
SAUS41 KBOX 020156
MTRMQE
METAR KMQE 020154Z AUTO 19010KT 20/17 A3005 RMK AO1 SLP184 T02000167





000
SAUS41 KBOX 020055
MTRMQE
METAR KMQE 020054Z AUTO 18012KT 21/16 A3005 RMK AO1 SLP183 T02110161





000
SAUS41 KBOX 012355
MTRMQE
METAR KMQE 012354Z AUTO 15009KT 21/16 A3004 RMK AO1 SLP178 T02110161
10278 20211 53002





000
SAUS41 KBOX 012255
MTRMQE
METAR KMQE 012254Z AUTO 14010KT 23/16 A3002 RMK AO1 SLP174 T02280161





000
SAUS41 KBOX 012155
MTRMQE
METAR KMQE 012154Z AUTO 12007KT 24/17 A3003 RMK AO1 SLP175 T02440167





000
SAUS41 KBOX 012055
MTRMQE
METAR KMQE 012054Z AUTO 09004KT 27/17 A3003 RMK AO1 SLP175 T02670167
55008





000
SAUS41 KBOX 011955
MTRMQE
METAR KMQE 011954Z AUTO 08006KT 27/16 A3003 RMK AO1 SLP174 T02720161





000
SAUS41 KBOX 011855
MTRMQE
METAR KMQE 011854Z AUTO 08008KT 050V110 27/15 A3004 RMK AO1 SLP179
T02670150





000
SAUS41 KBOX 011855
MTRMQE
METAR KMQE 011854Z AUTO 08008KT 050V110 27/15 A3004 RMK AO1 SLP179
T02670150





000
SAUS41 KBOX 011755
MTRMQE
METAR KMQE 011754Z AUTO 04007KT 27/15 A3005 RMK AO1 SLP183 T02670150
10272 20200 56004





000
SAUS41 KBOX 011656
MTRMQE
METAR KMQE 011654Z AUTO VRB06KT 26/15 A3006 RMK AO1 SLP184 T02610150





000
SAUS41 KBOX 011555
MTRMQE
METAR KMQE 011554Z AUTO VRB04KT 26/16 A3006 RMK AO1 SLP185 T02610156





000
SAUS41 KBOX 011455
MTRMQE
METAR KMQE 011454Z AUTO VRB04KT 24/15 A3007 RMK AO1 SLP188 T02440150
51010





000
SAUS41 KBOX 011455
MTRMQE
METAR KMQE 011454Z AUTO VRB04KT 24/15 A3007 RMK AO1 SLP188 T02440150
51010





000
SAUS41 KBOX 011355
MTRMQE
METAR KMQE 011354Z AUTO 00000KT 24/16 A3006 RMK AO1 SLP186 T02440161





000
SAUS41 KBOX 011255
MTRMQE
METAR KMQE 011254Z AUTO 01007KT 340V040 23/17 A3005 RMK AO1 SLP181
T02280167





000
SAUS41 KBOX 011255
MTRMQE
METAR KMQE 011254Z AUTO 01007KT 340V040 23/17 A3005 RMK AO1 SLP181
T02280167





000
SAUS41 KBOX 011155
MTRMQE
METAR KMQE 011154Z AUTO 36007KT 20/16 A3004 RMK AO1 SLP177 T02000161
10211 20183 51016





000
SAUS41 KBOX 011155
MTRMQE
METAR KMQE 011154Z AUTO 36007KT 20/16 A3004 RMK AO1 SLP177 T02000161
10211 20183 51016





000
SAUS41 KBOX 011055
MTRMQE
METAR KMQE 011054Z AUTO 34011KT 18/16 A3003 RMK AO1 SLP174 T01830161





000
SAUS41 KBOX 011055
MTRMQE
METAR KMQE 011054Z AUTO 34011KT 18/16 A3003 RMK AO1 SLP174 T01830161





000
SAUS41 KBOX 010955
MTRMQE
METAR KMQE 010954Z AUTO 33011KT 18/16 A3000 RMK AO1 SLP166 T01830161





000
SAUS41 KBOX 010855
MTRMQE
METAR KMQE 010854Z AUTO 33011KT 19/17 A2999 RMK AO1 SLP161 T01890167
53001





000
SAUS41 KBOX 010855
MTRMQE
METAR KMQE 010854Z AUTO 33011KT 19/17 A2999 RMK AO1 SLP161 T01890167
53001





000
SAUS41 KBOX 010755
MTRMQE
METAR KMQE 010754Z AUTO 32010KT 19/17 A2998 RMK AO1 SLP159 T01940167





000
SAUS41 KBOX 010755
MTRMQE
METAR KMQE 010754Z AUTO 32010KT 19/17 A2998 RMK AO1 SLP159 T01940167





000
SAUS41 KBOX 010656
MTRMQE
METAR KMQE 010654Z AUTO 34009KT 21/16 A2999 RMK AO1 SLP159 T02110161





000
SAUS41 KBOX 010656
MTRMQE
METAR KMQE 010654Z AUTO 34009KT 21/16 A2999 RMK AO1 SLP159 T02110161





000
SAUS41 KBOX 010555
MTRMQE
METAR KMQE 010554Z AUTO 34007KT 21/17 A2999 RMK AO1 SLP159 T02110167
10256 20211 51013





000
SAUS41 KBOX 010555
MTRMQE
METAR KMQE 010554Z AUTO 34007KT 21/17 A2999 RMK AO1 SLP159 T02110167
10256 20211 51013





000
SAUS41 KBOX 010455
MTRMQE
METAR KMQE 010454Z AUTO 31009KT 22/17 A2998 RMK AO1 SLP157 T02220167
403060200





000
SAUS41 KBOX 010355
MTRMQE
METAR KMQE 010354Z AUTO 29008KT 22/17 A2996 RMK AO1 SLP150 T02220167





000
SAUS41 KBOX 010255
MTRMQE
METAR KMQE 010254Z AUTO 29010KT 23/17 A2995 RMK AO1 SLP147 T02280167
51008





000
SAUS41 KBOX 010155
MTRMQE
METAR KMQE 010154Z AUTO 29012KT 24/17 A2994 RMK AO1 SLP145 T02390167





000
SAUS41 KBOX 010055
MTRMQE
METAR KMQE 010054Z AUTO 28011KT 25/17 A2994 RMK AO1 SLP144 T02500167





000
SAUS41 KBOX 312355
MTRMQE
METAR KMQE 312354Z AUTO 28012KT 26/17 A2992 RMK AO1 SLP138 T02560167
10306 20256 53009





000
SAUS41 KBOX 312255
MTRMQE
METAR KMQE 312254Z AUTO 29012G19KT 27/17 A2991 RMK AO1 SLP133
T02670172





000
SAUS41 KBOX 312155
MTRMQE
METAR KMQE 312154Z AUTO 29012G20KT 28/17 A2991 RMK AO1 SLP134
T02780172





000
SAUS41 KBOX 312155
MTRMQE
METAR KMQE 312154Z AUTO 29012G20KT 28/17 A2991 RMK AO1 SLP134
T02780172





000
SAUS41 KBOX 312055
MTRMQE
METAR KMQE 312054Z AUTO 29014G21KT 29/17 A2989 RMK AO1 SLP129
T02890172 56013





000
SAUS41 KBOX 311955
MTRMQE
METAR KMQE 311954Z AUTO 27011G20KT 30/18 A2990 RMK AO1 SLP129
T03000178





000
SAUS41 KBOX 311955
MTRMQE
METAR KMQE 311954Z AUTO 27011G20KT 30/18 A2990 RMK AO1 SLP129
T03000178





000
SAUS41 KBOX 311855
MTRMQE
METAR KMQE 311854Z AUTO 27014G23KT 30/18 A2991 RMK AO1 SLP133
T03000178





000
SAUS41 KBOX 311855
MTRMQE
METAR KMQE 311854Z AUTO 27014G23KT 30/18 A2991 RMK AO1 SLP133
T03000178





000
SAUS41 KBOX 311756
MTRMQE
METAR KMQE 311754Z AUTO 25012G20KT 30/17 A2993 RMK AO1 SLP141
T03000167 10306 20217 57018





000
SAUS41 KBOX 311756
MTRMQE
METAR KMQE 311754Z AUTO 25012G20KT 30/17 A2993 RMK AO1 SLP141
T03000167 10306 20217 57018





000
SAUS41 KBOX 311655
MTRMQE
METAR KMQE 311654Z AUTO 27014G20KT 29/17 A2995 RMK AO1 SLP146
T02940172





000
SAUS41 KBOX 311555
MTRMQE
METAR KMQE 311554Z AUTO 28011G15KT 29/18 A2997 RMK AO1 SLP155
T02890183





000
SAUS41 KBOX 311456
MTRMQE
METAR KMQE 311454Z AUTO 29007KT 27/18 A2999 RMK AO1 SLP160 T02670178
50001





000
SAUS41 KBOX 311456
MTRMQE
METAR KMQE 311454Z AUTO 29007KT 27/18 A2999 RMK AO1 SLP160 T02670178
50001





000
SAUS41 KBOX 311355
MTRMQE
METAR KMQE 311354Z AUTO 28009KT 26/18 A2999 RMK AO1 SLP161 T02610183





000
SAUS41 KBOX 311355
MTRMQE
METAR KMQE 311354Z AUTO 28009KT 26/18 A2999 RMK AO1 SLP161 T02610183





000
SAUS41 KBOX 311255
MTRMQE
METAR KMQE 311254Z AUTO 28007KT 24/19 A2999 RMK AO1 SLP162 T02440189





000
SAUS41 KBOX 311155
MTRMQE
METAR KMQE 311154Z AUTO 26008KT 22/18 A2999 RMK AO1 SLP160 T02170183
10217 20200 50001





000
SAUS41 KBOX 311155
MTRMQE
METAR KMQE 311154Z AUTO 26008KT 22/18 A2999 RMK AO1 SLP160 T02170183
10217 20200 50001





000
SAUS41 KBOX 311055
MTRMQE
METAR KMQE 311054Z AUTO 27010KT 21/18 A2999 RMK AO1 SLP160 T02060183





000
SAUS41 KBOX 311055
MTRMQE
METAR KMQE 311054Z AUTO 27010KT 21/18 A2999 RMK AO1 SLP160 T02060183





000
SAUS41 KBOX 310955
MTRMQE
METAR KMQE 310954Z AUTO 27010KT 20/19 A2998 RMK AO1 SLP158 T02000189





000
SAUS41 KBOX 310855
MTRMQE
METAR KMQE 310854Z AUTO 23007KT 20/19 A2998 RMK AO1 SLP159 T02000189
56007





000
SAUS41 KBOX 310756
MTRMQE
METAR KMQE 310754Z AUTO 22007KT 21/19 A2999 RMK AO1 SLP160 T02060189





000
SAUS41 KBOX 310756
MTRMQE
METAR KMQE 310754Z AUTO 22007KT 21/19 A2999 RMK AO1 SLP160 T02060189





000
SAUS41 KBOX 310655
MTRMQE
METAR KMQE 310654Z AUTO 25008KT 21/18 A2999 RMK AO1 SLP163 T02060183





000
SAUS41 KBOX 310555
MTRMQE
METAR KMQE 310554Z AUTO 24007KT 21/18 A3000 RMK AO1 SLP166 T02110183
10250 20211 58008





000
SAUS41 KBOX 310555
MTRMQE
METAR KMQE 310554Z AUTO 24007KT 21/18 A3000 RMK AO1 SLP166 T02110183
10250 20211 58008





000
SAUS41 KBOX 310456
MTRMQE
METAR KMQE 310454Z AUTO 22008KT 22/18 A3002 RMK AO1 SLP171 T02170178
403000183





000
SAUS41 KBOX 310456
MTRMQE
METAR KMQE 310454Z AUTO 22008KT 22/18 A3002 RMK AO1 SLP171 T02170178
403000183





000
SAUS41 KBOX 310355
MTRMQE
METAR KMQE 310354Z AUTO 22008KT 23/17 A3002 RMK AO1 SLP172 T02280172





000
SAUS41 KBOX 310255
MTRMQE
METAR KMQE 310254Z AUTO 24007KT 23/17 A3003 RMK AO1 SLP174 T02330167
50003





000
SAUS41 KBOX 310255
MTRMQE
METAR KMQE 310254Z AUTO 24007KT 23/17 A3003 RMK AO1 SLP174 T02330167
50003





000
SAUS41 KBOX 310155
MTRMQE
METAR KMQE 310154Z AUTO 24009KT 24/17 A3003 RMK AO1 SLP175 T02390167





000
SAUS41 KBOX 310055
MTRMQE
METAR KMQE 310054Z AUTO 22006KT 25/16 A3004 RMK AO1 SLP177 T02500156





000
SAUS41 KBOX 310055
MTRMQE
METAR KMQE 310054Z AUTO 22006KT 25/16 A3004 RMK AO1 SLP177 T02500156





000
SAUS41 KBOX 302355
MTRMQE
METAR KMQE 302354Z AUTO 28007KT 24/16 A3002 RMK AO1 SLP172 T02440156
10300 20244 53004





000
SAUS41 KBOX 302355
MTRMQE
METAR KMQE 302354Z AUTO 28007KT 24/16 A3002 RMK AO1 SLP172 T02440156
10300 20244 53004





000
SAUS41 KBOX 302256
MTRMQE
METAR KMQE 302254Z AUTO 29008KT 25/16 A3001 RMK AO1 SLP168 T02500156





000
SAUS41 KBOX 302155
MTRMQE
METAR KMQE 302154Z AUTO 27009KT 27/16 A3001 RMK AO1 SLP169 T02670156





000
SAUS41 KBOX 302155
MTRMQE
METAR KMQE 302154Z AUTO 27009KT 27/16 A3001 RMK AO1 SLP169 T02670156





000
SAUS41 KBOX 302055
MTRMQE
METAR KMQE 302054Z AUTO 28008KT 28/15 A3001 RMK AO1 SLP167 T02830150
58013





000
SAUS41 KBOX 301955
MTRMQE
METAR KMQE 301954Z AUTO 27013G21KT 28/14 A3002 RMK AO1 SLP172
T02830139





000
SAUS41 KBOX 301955
MTRMQE
METAR KMQE 301954Z AUTO 27013G21KT 28/14 A3002 RMK AO1 SLP172
T02830139





000
SAUS41 KBOX 301855
MTRMQE
METAR KMQE 301854Z AUTO 26006KT 29/16 A3004 RMK AO1 SLP177 T02940156





000
SAUS41 KBOX 301855
MTRMQE
METAR KMQE 301854Z AUTO 26006KT 29/16 A3004 RMK AO1 SLP177 T02940156





000
SAUS41 KBOX 301755
MTRMQE
METAR KMQE 301754Z AUTO 28015G21KT 29/16 A3004 RMK AO1 SLP180
T02890156 10300 20189 58013





000
SAUS41 KBOX 301755
MTRMQE
METAR KMQE 301754Z AUTO 28015G21KT 29/16 A3004 RMK AO1 SLP180
T02890156 10300 20189 58013





000
SAUS41 KBOX 301655
MTRMQE
METAR KMQE 301654Z AUTO 27008KT 28/16 A3006 RMK AO1 SLP187 T02830156





000
SAUS41 KBOX 301555
MTRMQE
METAR KMQE 301554Z AUTO 28009KT 27/17 A3008 RMK AO1 SLP192 T02670167





000
SAUS41 KBOX 301455
MTRMQE
METAR KMQE 301454Z AUTO 24006KT 26/18 A3008 RMK AO1 SLP194 T02560178
52000





000
SAUS41 KBOX 301355
MTRMQE
METAR KMQE 301354Z AUTO 26004KT 23/18 A3009 RMK AO1 SLP196 T02330178





000
SAUS41 KBOX 301255
MTRMQE
METAR KMQE 301254Z AUTO 23006KT 20/17 A3008 RMK AO1 SLP193 T02000172





000
SAUS41 KBOX 301255
MTRMQE
METAR KMQE 301254Z AUTO 23006KT 20/17 A3008 RMK AO1 SLP193 T02000172





000
SAUS41 KBOX 301155
MTRMQE
METAR KMQE 301154Z AUTO 25008KT 19/17 A3008 RMK AO1 SLP195 T01890172
10189 20183 53005





000
SAUS41 KBOX 301155
MTRMQE
METAR KMQE 301154Z AUTO 25008KT 19/17 A3008 RMK AO1 SLP195 T01890172
10189 20183 53005





000
SAUS41 KBOX 301055
MTRMQE
METAR KMQE 301054Z AUTO 25009KT 18/17 A3008 RMK AO1 SLP193 T01830172





000
SAUS41 KBOX 301055
MTRMQE
METAR KMQE 301054Z AUTO 25009KT 18/17 A3008 RMK AO1 SLP193 T01830172





000
SAUS41 KBOX 300955
MTRMQE
METAR KMQE 300954Z AUTO 22010KT 18/17 A3007 RMK AO1 SLP188 T01830167





000
SAUS41 KBOX 300955
MTRMQE
METAR KMQE 300954Z AUTO 22010KT 18/17 A3007 RMK AO1 SLP188 T01830167





000
SAUS41 KBOX 300855
MTRMQE
METAR KMQE 300854Z AUTO 23010KT 18/16 A3007 RMK AO1 SLP189 T01830161
56007





000
SAUS41 KBOX 300855
MTRMQE
METAR KMQE 300854Z AUTO 23010KT 18/16 A3007 RMK AO1 SLP189 T01830161
56007





000
SAUS41 KBOX 300755
MTRMQE
METAR KMQE 300754Z AUTO 23011KT 19/16 A3007 RMK AO1 SLP188 T01890156





000
SAUS41 KBOX 300657
MTRMQE
METAR KMQE 300654Z AUTO 23010KT 19/16 A3008 RMK AO1 SLP191 T01890156





000
SAUS41 KBOX 300657
MTRMQE
METAR KMQE 300654Z AUTO 23010KT 19/16 A3008 RMK AO1 SLP191 T01890156





000
SAUS41 KBOX 300555
MTRMQE
METAR KMQE 300554Z AUTO 24010KT 19/15 A3009 RMK AO1 SLP197 T01890150
10217 20189 57007





000
SAUS41 KBOX 300455
MTRMQE
METAR KMQE 300454Z AUTO 23010KT 19/15 A3010 RMK AO1 SLP199 T01890150
402670156





    US Dept of Commerce
    National Oceanic and Atmospheric Administration
    National Weather Service
    1325 East West Highway
    Silver Spring, MD 20910
    Page Author: NWS Internet Services Team
Disclaimer
Information Quality
Credits
Glossary
Privacy Policy
Freedom of Information Act (FOIA)
About Us
Career Opportunities